sensor_id;sensor_type;location;lat;lon;timestamp;P1;durP1;ratioP1;P2;durP2;ratioP2
71368;SDS011;59175;53.214;5.728;2023-01-16T00:00:11;2.77;;;1.03;;
71368;SDS011;59175;53.214;5.728;2023-01-16T00:02:36;1.27;;;0.30;;
71368;SDS011;59175;53.214;5.728;2023-01-16T00:05:01;2.93;;;0.30;;
71368;SDS011;59175;53.214;5.728;2023-01-16T00:07:27;1.07;;;0.17;;
71368;SDS011;59175;53.214;5.728;2023-01-16T00:09:53;1.17;;;0.38;;
71368;SDS011;59175;53.214;5.728;2023-01-16T00:12:18;1.40;;;0.30;;
71368;SDS011;59175;53.214;5.728;2023-01-16T00:14:44;1.80;;;0.77;;
71368;SDS011;59175;53.214;5.728;2023-01-16T00:17:09;2.23;;;0.73;;
71368;SDS011;59175;53.214;5.728;2023-01-16T00:19:34;1.80;;;0.87;;
71368;SDS011;59175;53.214;5.728;2023-01-16T00:21:59;1.53;;;0.30;;
71368;SDS011;59175;53.214;5.728;2023-01-16T00:24:24;2.50;;;0.60;;
71368;SDS011;59175;53.214;5.728;2023-01-16T00:26:50;6.77;;;0.73;;
71368;SDS011;59175;53.214;5.728;2023-01-16T00:29:16;3.25;;;1.15;;
71368;SDS011;59175;53.214;5.728;2023-01-16T00:31:41;3.03;;;0.50;;
71368;SDS011;59175;53.214;5.728;2023-01-16T00:34:06;2.70;;;0.83;;
71368;SDS011;59175;53.214;5.728;2023-01-16T00:36:31;7.70;;;1.07;;
71368;SDS011;59175;53.214;5.728;2023-01-16T00:38:57;3.47;;;1.10;;
71368;SDS011;59175;53.214;5.728;2023-01-16T00:41:22;2.07;;;0.70;;
71368;SDS011;59175;53.214;5.728;2023-01-16T00:43:47;2.30;;;0.60;;
71368;SDS011;59175;53.214;5.728;2023-01-16T00:46:12;2.43;;;0.80;;
71368;SDS011;59175;53.214;5.728;2023-01-16T00:48:38;2.27;;;0.70;;
71368;SDS011;59175;53.214;5.728;2023-01-16T00:51:03;3.23;;;0.40;;
71368;SDS011;59175;53.214;5.728;2023-01-16T00:53:28;3.40;;;1.00;;
71368;SDS011;59175;53.214;5.728;2023-01-16T00:55:54;4.93;;;0.87;;
71368;SDS011;59175;53.214;5.728;2023-01-16T00:58:19;7.60;;;0.70;;
71368;SDS011;59175;53.214;5.728;2023-01-16T01:00:44;3.40;;;0.77;;
71368;SDS011;59175;53.214;5.728;2023-01-16T01:03:09;2.37;;;0.50;;
71368;SDS011;59175;53.214;5.728;2023-01-16T01:05:35;2.57;;;0.50;;
71368;SDS011;59175;53.214;5.728;2023-01-16T01:08:01;5.20;;;1.35;;
71368;SDS011;59175;53.214;5.728;2023-01-16T01:10:26;3.60;;;0.70;;
71368;SDS011;59175;53.214;5.728;2023-01-16T01:12:54;2.30;;;1.70;;
71368;SDS011;59175;53.214;5.728;2023-01-16T01:15:20;2.92;;;0.98;;
71368;SDS011;59175;53.214;5.728;2023-01-16T01:17:45;3.23;;;1.17;;
71368;SDS011;59175;53.214;5.728;2023-01-16T01:20:10;2.97;;;1.13;;
71368;SDS011;59175;53.214;5.728;2023-01-16T01:22:36;3.57;;;1.27;;
71368;SDS011;59175;53.214;5.728;2023-01-16T01:25:01;1.50;;;0.30;;
71368;SDS011;59175;53.214;5.728;2023-01-16T01:27:26;2.00;;;0.70;;
71368;SDS011;59175;53.214;5.728;2023-01-16T01:29:51;1.87;;;0.33;;
71368;SDS011;59175;53.214;5.728;2023-01-16T01:32:16;3.20;;;0.90;;
71368;SDS011;59175;53.214;5.728;2023-01-16T01:34:42;2.43;;;0.93;;
71368;SDS011;59175;53.214;5.728;2023-01-16T01:37:09;2.67;;;0.60;;
71368;SDS011;59175;53.214;5.728;2023-01-16T01:39:34;2.78;;;1.23;;
71368;SDS011;59175;53.214;5.728;2023-01-16T01:42:00;5.30;;;1.07;;
71368;SDS011;59175;53.214;5.728;2023-01-16T01:44:54;2.35;;;0.60;;
71368;SDS011;59175;53.214;5.728;2023-01-16T01:47:21;5.18;;;1.00;;
71368;SDS011;59175;53.214;5.728;2023-01-16T01:49:47;4.43;;;1.33;;
71368;SDS011;59175;53.214;5.728;2023-01-16T01:52:13;11.82;;;1.05;;
71368;SDS011;59175;53.214;5.728;2023-01-16T01:54:40;2.77;;;1.00;;
71368;SDS011;59175;53.214;5.728;2023-01-16T01:59:34;1.47;;;0.57;;
71368;SDS011;59175;53.214;5.728;2023-01-16T02:02:02;3.72;;;1.15;;
71368;SDS011;59175;53.214;5.728;2023-01-16T02:04:30;4.85;;;2.30;;
71368;SDS011;59175;53.214;5.728;2023-01-16T02:06:56;3.38;;;1.17;;
71368;SDS011;59175;53.214;5.728;2023-01-16T02:09:23;1.53;;;0.70;;
71368;SDS011;59175;53.214;5.728;2023-01-16T02:11:50;2.58;;;0.68;;
71368;SDS011;59175;53.214;5.728;2023-01-16T02:14:16;2.63;;;0.98;;
71368;SDS011;59175;53.214;5.728;2023-01-16T02:16:42;3.00;;;0.70;;
71368;SDS011;59175;53.214;5.728;2023-01-16T02:27:30;3.43;;;0.83;;
71368;SDS011;59175;53.214;5.728;2023-01-16T02:38:14;3.58;;;1.10;;
71368;SDS011;59175;53.214;5.728;2023-01-16T02:43:12;3.27;;;1.37;;
71368;SDS011;59175;53.214;5.728;2023-01-16T02:45:59;3.17;;;0.63;;
71368;SDS011;59175;53.214;5.728;2023-01-16T02:48:34;2.45;;;0.75;;
71368;SDS011;59175;53.214;5.728;2023-01-16T02:53:44;1.05;;;0.50;;
71368;SDS011;59175;53.214;5.728;2023-01-16T02:56:11;3.13;;;1.00;;
71368;SDS011;59175;53.214;5.728;2023-01-16T02:58:44;1.60;;;0.23;;
71368;SDS011;59175;53.214;5.728;2023-01-16T03:01:10;1.25;;;0.50;;
71368;SDS011;59175;53.214;5.728;2023-01-16T03:03:43;3.33;;;0.68;;
71368;SDS011;59175;53.214;5.728;2023-01-16T03:06:20;3.13;;;0.60;;
71368;SDS011;59175;53.214;5.728;2023-01-16T03:11:36;1.03;;;0.23;;
71368;SDS011;59175;53.214;5.728;2023-01-16T03:19:05;2.57;;;0.80;;
71368;SDS011;59175;53.214;5.728;2023-01-16T03:24:03;3.33;;;1.00;;
71368;SDS011;59175;53.214;5.728;2023-01-16T03:26:41;4.77;;;0.90;;
71368;SDS011;59175;53.214;5.728;2023-01-16T03:32:04;9.50;;;0.75;;
71368;SDS011;59175;53.214;5.728;2023-01-16T03:39:29;2.37;;;1.27;;
71368;SDS011;59175;53.214;5.728;2023-01-16T03:41:58;1.88;;;0.63;;
71368;SDS011;59175;53.214;5.728;2023-01-16T03:44:29;1.33;;;0.43;;
71368;SDS011;59175;53.214;5.728;2023-01-16T03:46:57;8.95;;;0.60;;
71368;SDS011;59175;53.214;5.728;2023-01-16T03:49:27;3.17;;;0.75;;
71368;SDS011;59175;53.214;5.728;2023-01-16T03:51:57;3.77;;;1.13;;
71368;SDS011;59175;53.214;5.728;2023-01-16T03:59:39;1.85;;;0.50;;
71368;SDS011;59175;53.214;5.728;2023-01-16T04:02:11;3.88;;;0.73;;
71368;SDS011;59175;53.214;5.728;2023-01-16T04:09:49;1.50;;;0.38;;
71368;SDS011;59175;53.214;5.728;2023-01-16T04:12:17;2.63;;;0.77;;
71368;SDS011;59175;53.214;5.728;2023-01-16T04:14:45;2.65;;;0.47;;
71368;SDS011;59175;53.214;5.728;2023-01-16T04:17:12;2.43;;;0.60;;
71368;SDS011;59175;53.214;5.728;2023-01-16T04:19:38;2.97;;;1.38;;
71368;SDS011;59175;53.214;5.728;2023-01-16T04:22:07;3.10;;;0.77;;
71368;SDS011;59175;53.214;5.728;2023-01-16T04:24:33;9.90;;;0.80;;
71368;SDS011;59175;53.214;5.728;2023-01-16T04:26:59;3.80;;;1.25;;
71368;SDS011;59175;53.214;5.728;2023-01-16T04:29:24;1.40;;;0.57;;
71368;SDS011;59175;53.214;5.728;2023-01-16T04:31:50;9.15;;;1.38;;
71368;SDS011;59175;53.214;5.728;2023-01-16T04:34:16;3.07;;;1.00;;
71368;SDS011;59175;53.214;5.728;2023-01-16T04:36:41;3.77;;;1.63;;
71368;SDS011;59175;53.214;5.728;2023-01-16T04:39:06;5.00;;;1.77;;
71368;SDS011;59175;53.214;5.728;2023-01-16T04:41:31;17.47;;;3.33;;
71368;SDS011;59175;53.214;5.728;2023-01-16T04:44:04;3.43;;;1.50;;
71368;SDS011;59175;53.214;5.728;2023-01-16T04:46:29;2.67;;;1.48;;
71368;SDS011;59175;53.214;5.728;2023-01-16T04:48:54;5.83;;;2.03;;
71368;SDS011;59175;53.214;5.728;2023-01-16T04:51:19;4.67;;;1.93;;
71368;SDS011;59175;53.214;5.728;2023-01-16T04:53:45;3.13;;;1.37;;
71368;SDS011;59175;53.214;5.728;2023-01-16T04:56:10;6.13;;;2.27;;
71368;SDS011;59175;53.214;5.728;2023-01-16T04:58:35;16.67;;;2.23;;
71368;SDS011;59175;53.214;5.728;2023-01-16T05:01:00;5.13;;;2.17;;
71368;SDS011;59175;53.214;5.728;2023-01-16T05:03:25;6.73;;;1.30;;
71368;SDS011;59175;53.214;5.728;2023-01-16T05:05:51;6.07;;;1.90;;
71368;SDS011;59175;53.214;5.728;2023-01-16T05:08:16;7.17;;;2.60;;
71368;SDS011;59175;53.214;5.728;2023-01-16T05:10:41;6.53;;;1.53;;
71368;SDS011;59175;53.214;5.728;2023-01-16T05:13:06;5.97;;;2.30;;
71368;SDS011;59175;53.214;5.728;2023-01-16T05:15:31;4.93;;;1.43;;
71368;SDS011;59175;53.214;5.728;2023-01-16T05:17:57;3.83;;;1.63;;
71368;SDS011;59175;53.214;5.728;2023-01-16T05:20:22;13.17;;;1.27;;
71368;SDS011;59175;53.214;5.728;2023-01-16T05:22:48;7.88;;;1.55;;
71368;SDS011;59175;53.214;5.728;2023-01-16T05:25:13;6.00;;;1.47;;
71368;SDS011;59175;53.214;5.728;2023-01-16T05:27:38;3.83;;;1.20;;
71368;SDS011;59175;53.214;5.728;2023-01-16T05:30:03;6.30;;;1.58;;
71368;SDS011;59175;53.214;5.728;2023-01-16T05:32:29;3.33;;;1.10;;
71368;SDS011;59175;53.214;5.728;2023-01-16T05:34:54;4.00;;;1.40;;
71368;SDS011;59175;53.214;5.728;2023-01-16T05:37:19;7.27;;;1.47;;
71368;SDS011;59175;53.214;5.728;2023-01-16T05:39:44;4.90;;;2.03;;
71368;SDS011;59175;53.214;5.728;2023-01-16T05:42:11;2.87;;;0.73;;
71368;SDS011;59175;53.214;5.728;2023-01-16T05:44:48;5.35;;;1.65;;
71368;SDS011;59175;53.214;5.728;2023-01-16T05:47:14;2.65;;;1.52;;
71368;SDS011;59175;53.214;5.728;2023-01-16T05:49:39;4.10;;;1.07;;
71368;SDS011;59175;53.214;5.728;2023-01-16T05:52:04;3.33;;;1.37;;
71368;SDS011;59175;53.214;5.728;2023-01-16T05:54:29;4.50;;;1.93;;
71368;SDS011;59175;53.214;5.728;2023-01-16T05:56:54;3.77;;;1.10;;
71368;SDS011;59175;53.214;5.728;2023-01-16T05:59:19;9.90;;;2.40;;
71368;SDS011;59175;53.214;5.728;2023-01-16T06:01:45;4.87;;;2.40;;
71368;SDS011;59175;53.214;5.728;2023-01-16T06:04:10;4.73;;;1.77;;
71368;SDS011;59175;53.214;5.728;2023-01-16T06:06:35;4.50;;;1.07;;
71368;SDS011;59175;53.214;5.728;2023-01-16T06:09:00;8.17;;;2.10;;
71368;SDS011;59175;53.214;5.728;2023-01-16T06:11:26;12.00;;;1.03;;
71368;SDS011;59175;53.214;5.728;2023-01-16T06:13:51;4.27;;;1.80;;
71368;SDS011;59175;53.214;5.728;2023-01-16T06:16:16;3.90;;;1.67;;
71368;SDS011;59175;53.214;5.728;2023-01-16T06:18:41;5.07;;;1.50;;
71368;SDS011;59175;53.214;5.728;2023-01-16T06:21:06;6.43;;;1.93;;
71368;SDS011;59175;53.214;5.728;2023-01-16T06:23:32;4.70;;;1.80;;
71368;SDS011;59175;53.214;5.728;2023-01-16T06:25:57;3.40;;;2.07;;
71368;SDS011;59175;53.214;5.728;2023-01-16T06:28:22;7.47;;;2.67;;
71368;SDS011;59175;53.214;5.728;2023-01-16T06:30:51;5.63;;;1.20;;
71368;SDS011;59175;53.214;5.728;2023-01-16T06:33:17;13.18;;;2.13;;
71368;SDS011;59175;53.214;5.728;2023-01-16T06:35:42;10.13;;;1.70;;
71368;SDS011;59175;53.214;5.728;2023-01-16T06:38:07;4.27;;;2.17;;
71368;SDS011;59175;53.214;5.728;2023-01-16T06:40:32;4.00;;;1.50;;
71368;SDS011;59175;53.214;5.728;2023-01-16T06:42:58;3.23;;;1.03;;
71368;SDS011;59175;53.214;5.728;2023-01-16T06:45:23;7.77;;;1.93;;
71368;SDS011;59175;53.214;5.728;2023-01-16T06:47:52;9.07;;;1.85;;
71368;SDS011;59175;53.214;5.728;2023-01-16T06:50:18;4.75;;;1.75;;
71368;SDS011;59175;53.214;5.728;2023-01-16T06:52:43;6.20;;;1.63;;
71368;SDS011;59175;53.214;5.728;2023-01-16T06:55:08;4.27;;;1.57;;
71368;SDS011;59175;53.214;5.728;2023-01-16T06:57:34;6.00;;;1.93;;
71368;SDS011;59175;53.214;5.728;2023-01-16T07:00:02;15.30;;;2.27;;
71368;SDS011;59175;53.214;5.728;2023-01-16T07:02:27;13.90;;;1.92;;
71368;SDS011;59175;53.214;5.728;2023-01-16T07:04:52;5.87;;;1.47;;
71368;SDS011;59175;53.214;5.728;2023-01-16T07:07:17;4.03;;;1.60;;
71368;SDS011;59175;53.214;5.728;2023-01-16T07:09:43;9.13;;;1.77;;
71368;SDS011;59175;53.214;5.728;2023-01-16T07:12:08;6.50;;;2.17;;
71368;SDS011;59175;53.214;5.728;2023-01-16T07:14:33;3.57;;;1.23;;
71368;SDS011;59175;53.214;5.728;2023-01-16T07:17:17;5.63;;;1.00;;
71368;SDS011;59175;53.214;5.728;2023-01-16T07:20:01;5.95;;;1.02;;
71368;SDS011;59175;53.214;5.728;2023-01-16T07:22:45;3.80;;;1.30;;
71368;SDS011;59175;53.214;5.728;2023-01-16T07:25:12;7.37;;;2.07;;
71368;SDS011;59175;53.214;5.728;2023-01-16T07:27:39;6.30;;;2.15;;
71368;SDS011;59175;53.214;5.728;2023-01-16T07:30:05;5.38;;;1.08;;
71368;SDS011;59175;53.214;5.728;2023-01-16T07:32:31;9.53;;;2.80;;
71368;SDS011;59175;53.214;5.728;2023-01-16T07:34:56;6.67;;;2.37;;
71368;SDS011;59175;53.214;5.728;2023-01-16T07:37:21;8.93;;;2.57;;
71368;SDS011;59175;53.214;5.728;2023-01-16T07:39:46;8.37;;;1.93;;
71368;SDS011;59175;53.214;5.728;2023-01-16T07:42:12;5.67;;;2.23;;
71368;SDS011;59175;53.214;5.728;2023-01-16T07:44:37;5.53;;;1.33;;
71368;SDS011;59175;53.214;5.728;2023-01-16T07:47:02;2.73;;;1.17;;
71368;SDS011;59175;53.214;5.728;2023-01-16T07:49:27;4.03;;;1.30;;
71368;SDS011;59175;53.214;5.728;2023-01-16T07:51:52;4.63;;;1.90;;
71368;SDS011;59175;53.214;5.728;2023-01-16T07:54:18;3.53;;;1.03;;
71368;SDS011;59175;53.214;5.728;2023-01-16T07:56:43;2.80;;;1.10;;
71368;SDS011;59175;53.214;5.728;2023-01-16T07:59:08;3.03;;;0.87;;
71368;SDS011;59175;53.214;5.728;2023-01-16T08:01:33;4.40;;;1.00;;
71368;SDS011;59175;53.214;5.728;2023-01-16T08:03:59;5.47;;;1.53;;
71368;SDS011;59175;53.214;5.728;2023-01-16T08:06:24;10.03;;;2.20;;
71368;SDS011;59175;53.214;5.728;2023-01-16T08:08:49;1.83;;;0.57;;
71368;SDS011;59175;53.214;5.728;2023-01-16T08:11:14;6.50;;;1.63;;
71368;SDS011;59175;53.214;5.728;2023-01-16T08:13:58;2.22;;;0.98;;
71368;SDS011;59175;53.214;5.728;2023-01-16T08:16:24;4.63;;;1.67;;
71368;SDS011;59175;53.214;5.728;2023-01-16T08:18:49;14.43;;;1.80;;
71368;SDS011;59175;53.214;5.728;2023-01-16T08:21:17;3.13;;;0.50;;
71368;SDS011;59175;53.214;5.728;2023-01-16T08:23:42;6.07;;;0.93;;
71368;SDS011;59175;53.214;5.728;2023-01-16T08:26:08;2.53;;;0.67;;
71368;SDS011;59175;53.214;5.728;2023-01-16T08:28:33;1.15;;;0.50;;
71368;SDS011;59175;53.214;5.728;2023-01-16T08:31:32;3.13;;;0.73;;
71368;SDS011;59175;53.214;5.728;2023-01-16T08:33:50;1.80;;;0.80;;
71368;SDS011;59175;53.214;5.728;2023-01-16T08:36:15;3.47;;;0.87;;
71368;SDS011;59175;53.214;5.728;2023-01-16T08:38:41;4.63;;;1.33;;
71368;SDS011;59175;53.214;5.728;2023-01-16T08:41:07;4.57;;;0.77;;
71368;SDS011;59175;53.214;5.728;2023-01-16T08:43:52;1.70;;;0.50;;
71368;SDS011;59175;53.214;5.728;2023-01-16T08:46:36;3.90;;;0.35;;
71368;SDS011;59175;53.214;5.728;2023-01-16T08:49:20;4.47;;;0.73;;
71368;SDS011;59175;53.214;5.728;2023-01-16T08:52:04;3.65;;;0.77;;
71368;SDS011;59175;53.214;5.728;2023-01-16T08:54:30;10.27;;;1.60;;
71368;SDS011;59175;53.214;5.728;2023-01-16T08:56:55;3.72;;;0.60;;
71368;SDS011;59175;53.214;5.728;2023-01-16T08:59:20;3.07;;;1.30;;
71368;SDS011;59175;53.214;5.728;2023-01-16T09:01:45;4.23;;;0.77;;
71368;SDS011;59175;53.214;5.728;2023-01-16T09:04:10;0.47;;;0.13;;
71368;SDS011;59175;53.214;5.728;2023-01-16T09:06:36;1.40;;;0.20;;
71368;SDS011;59175;53.214;5.728;2023-01-16T09:09:06;1.88;;;0.57;;
71368;SDS011;59175;53.214;5.728;2023-01-16T09:11:32;4.70;;;0.60;;
71368;SDS011;59175;53.214;5.728;2023-01-16T09:14:15;3.00;;;0.52;;
71368;SDS011;59175;53.214;5.728;2023-01-16T09:16:41;1.07;;;0.30;;
71368;SDS011;59175;53.214;5.728;2023-01-16T09:19:06;3.87;;;1.00;;
71368;SDS011;59175;53.214;5.728;2023-01-16T09:21:31;2.53;;;0.57;;
71368;SDS011;59175;53.214;5.728;2023-01-16T09:23:56;4.23;;;1.30;;
71368;SDS011;59175;53.214;5.728;2023-01-16T09:26:21;7.97;;;1.10;;
71368;SDS011;59175;53.214;5.728;2023-01-16T09:28:47;1.57;;;0.63;;
71368;SDS011;59175;53.214;5.728;2023-01-16T09:31:12;3.67;;;0.40;;
71368;SDS011;59175;53.214;5.728;2023-01-16T09:33:37;3.50;;;1.33;;
71368;SDS011;59175;53.214;5.728;2023-01-16T09:36:03;2.50;;;0.80;;
71368;SDS011;59175;53.214;5.728;2023-01-16T09:38:28;5.60;;;0.97;;
71368;SDS011;59175;53.214;5.728;2023-01-16T09:40:54;2.23;;;0.63;;
71368;SDS011;59175;53.214;5.728;2023-01-16T09:43:39;2.28;;;0.22;;
71368;SDS011;59175;53.214;5.728;2023-01-16T09:48:48;3.85;;;0.55;;
71368;SDS011;59175;53.214;5.728;2023-01-16T09:51:16;1.93;;;0.70;;
71368;SDS011;59175;53.214;5.728;2023-01-16T09:56:34;4.35;;;0.98;;
71368;SDS011;59175;53.214;5.728;2023-01-16T09:59:21;3.05;;;0.90;;
71368;SDS011;59175;53.214;5.728;2023-01-16T10:01:52;2.70;;;0.93;;
71368;SDS011;59175;53.214;5.728;2023-01-16T10:04:19;3.33;;;1.27;;
71368;SDS011;59175;53.214;5.728;2023-01-16T10:09:36;1.60;;;0.45;;
71368;SDS011;59175;53.214;5.728;2023-01-16T10:12:10;3.35;;;0.73;;
71368;SDS011;59175;53.214;5.728;2023-01-16T10:20:00;4.00;;;0.77;;
71368;SDS011;59175;53.214;5.728;2023-01-16T10:25:15;1.40;;;0.60;;
71368;SDS011;59175;53.214;5.728;2023-01-16T10:30:40;2.78;;;0.52;;
71368;SDS011;59175;53.214;5.728;2023-01-16T10:35:41;3.95;;;0.57;;
71368;SDS011;59175;53.214;5.728;2023-01-16T10:40:43;1.55;;;0.80;;
71368;SDS011;59175;53.214;5.728;2023-01-16T10:43:15;6.30;;;1.25;;
71368;SDS011;59175;53.214;5.728;2023-01-16T10:46:04;1.80;;;0.57;;
71368;SDS011;59175;53.214;5.728;2023-01-16T10:48:54;1.35;;;0.40;;
71368;SDS011;59175;53.214;5.728;2023-01-16T10:51:37;1.92;;;0.40;;
71368;SDS011;59175;53.214;5.728;2023-01-16T10:54:03;1.40;;;0.50;;
71368;SDS011;59175;53.214;5.728;2023-01-16T10:56:28;1.87;;;0.40;;
71368;SDS011;59175;53.214;5.728;2023-01-16T10:58:54;2.67;;;0.40;;
71368;SDS011;59175;53.214;5.728;2023-01-16T11:01:20;1.80;;;0.40;;
71368;SDS011;59175;53.214;5.728;2023-01-16T11:03:50;2.55;;;0.40;;
71368;SDS011;59175;53.214;5.728;2023-01-16T11:06:20;1.10;;;0.52;;
71368;SDS011;59175;53.214;5.728;2023-01-16T11:08:49;2.50;;;0.50;;
71368;SDS011;59175;53.214;5.728;2023-01-16T11:11:16;2.08;;;0.30;;
71368;SDS011;59175;53.214;5.728;2023-01-16T11:14:03;1.63;;;0.50;;
71368;SDS011;59175;53.214;5.728;2023-01-16T11:16:48;0.25;;;0.10;;
71368;SDS011;59175;53.214;5.728;2023-01-16T11:19:39;1.52;;;0.30;;
71368;SDS011;59175;53.214;5.728;2023-01-16T11:22:07;1.02;;;0.20;;
71368;SDS011;59175;53.214;5.728;2023-01-16T11:24:45;5.70;;;0.40;;
71368;SDS011;59175;53.214;5.728;2023-01-16T11:27:17;0.77;;;0.10;;
71368;SDS011;59175;53.214;5.728;2023-01-16T11:29:44;0.67;;;0.10;;
71368;SDS011;59175;53.214;5.728;2023-01-16T11:32:10;0.75;;;0.10;;
71368;SDS011;59175;53.214;5.728;2023-01-16T11:34:36;1.90;;;0.50;;
71368;SDS011;59175;53.214;5.728;2023-01-16T11:37:03;2.00;;;0.60;;
71368;SDS011;59175;53.214;5.728;2023-01-16T11:39:30;4.85;;;0.80;;
71368;SDS011;59175;53.214;5.728;2023-01-16T11:41:57;8.48;;;1.85;;
71368;SDS011;59175;53.214;5.728;2023-01-16T11:44:24;4.17;;;1.07;;
71368;SDS011;59175;53.214;5.728;2023-01-16T11:47:10;3.03;;;0.55;;
71368;SDS011;59175;53.214;5.728;2023-01-16T11:49:40;1.88;;;0.55;;
71368;SDS011;59175;53.214;5.728;2023-01-16T11:52:05;3.00;;;0.93;;
71368;SDS011;59175;53.214;5.728;2023-01-16T11:54:34;0.30;;;0.10;;
71368;SDS011;59175;53.214;5.728;2023-01-16T11:59:36;1.00;;;0.17;;
71368;SDS011;59175;53.214;5.728;2023-01-16T12:02:11;1.42;;;0.20;;
71368;SDS011;59175;53.214;5.728;2023-01-16T12:11:02;0.83;;;0.10;;
71368;SDS011;59175;53.214;5.728;2023-01-16T12:13:20;1.27;;;0.10;;
71368;SDS011;59175;53.214;5.728;2023-01-16T12:16:29;0.82;;;0.20;;
71368;SDS011;59175;53.214;5.728;2023-01-16T12:21:53;0.65;;;0.00;;
71368;SDS011;59175;53.214;5.728;2023-01-16T12:24:26;0.37;;;0.00;;
71368;SDS011;59175;53.214;5.728;2023-01-16T12:37:26;0.20;;;0.00;;
71368;SDS011;59175;53.214;5.728;2023-01-16T12:50:34;0.65;;;0.10;;
71368;SDS011;59175;53.214;5.728;2023-01-16T12:53:12;2.03;;;0.30;;
71368;SDS011;59175;53.214;5.728;2023-01-16T12:58:18;3.10;;;0.90;;
71368;SDS011;59175;53.214;5.728;2023-01-16T13:01:18;1.95;;;0.55;;
71368;SDS011;59175;53.214;5.728;2023-01-16T13:06:36;1.67;;;0.47;;
71368;SDS011;59175;53.214;5.728;2023-01-16T13:09:04;1.98;;;0.32;;
71368;SDS011;59175;53.214;5.728;2023-01-16T13:11:46;0.68;;;0.20;;
71368;SDS011;59175;53.214;5.728;2023-01-16T13:14:30;1.48;;;0.32;;
71368;SDS011;59175;53.214;5.728;2023-01-16T13:17:01;1.30;;;0.35;;
71368;SDS011;59175;53.214;5.728;2023-01-16T13:19:29;3.33;;;0.40;;
71368;SDS011;59175;53.214;5.728;2023-01-16T13:22:02;1.73;;;0.40;;
71368;SDS011;59175;53.214;5.728;2023-01-16T13:24:32;1.38;;;0.22;;
71368;SDS011;59175;53.214;5.728;2023-01-16T13:27:00;3.97;;;0.60;;
71368;SDS011;59175;53.214;5.728;2023-01-16T13:29:31;0.93;;;0.27;;
71368;SDS011;59175;53.214;5.728;2023-01-16T13:31:59;0.52;;;0.17;;
71368;SDS011;59175;53.214;5.728;2023-01-16T13:34:29;2.90;;;0.43;;
71368;SDS011;59175;53.214;5.728;2023-01-16T13:39:55;1.65;;;0.30;;
71368;SDS011;59175;53.214;5.728;2023-01-16T13:42:23;1.80;;;0.33;;
71368;SDS011;59175;53.214;5.728;2023-01-16T13:44:50;1.13;;;0.43;;
71368;SDS011;59175;53.214;5.728;2023-01-16T13:47:36;1.48;;;0.38;;
71368;SDS011;59175;53.214;5.728;2023-01-16T13:52:32;2.17;;;0.35;;
71368;SDS011;59175;53.214;5.728;2023-01-16T13:54:58;1.50;;;0.43;;
71368;SDS011;59175;53.214;5.728;2023-01-16T13:57:24;1.43;;;0.50;;
71368;SDS011;59175;53.214;5.728;2023-01-16T14:10:38;0.65;;;0.25;;
71368;SDS011;59175;53.214;5.728;2023-01-16T14:23:38;1.23;;;0.20;;
71368;SDS011;59175;53.214;5.728;2023-01-16T14:28:56;1.23;;;0.30;;
71368;SDS011;59175;53.214;5.728;2023-01-16T14:31:26;0.87;;;0.20;;
71368;SDS011;59175;53.214;5.728;2023-01-16T14:33:52;1.00;;;0.30;;
71368;SDS011;59175;53.214;5.728;2023-01-16T14:36:18;1.15;;;0.30;;
71368;SDS011;59175;53.214;5.728;2023-01-16T14:38:45;1.15;;;0.20;;
71368;SDS011;59175;53.214;5.728;2023-01-16T14:41:14;0.57;;;0.10;;
71368;SDS011;59175;53.214;5.728;2023-01-16T14:44:16;0.85;;;0.15;;
71368;SDS011;59175;53.214;5.728;2023-01-16T14:50:07;2.42;;;0.10;;
71368;SDS011;59175;53.214;5.728;2023-01-16T14:53:02;0.60;;;0.17;;
71368;SDS011;59175;53.214;5.728;2023-01-16T14:56:08;1.90;;;0.10;;
71368;SDS011;59175;53.214;5.728;2023-01-16T14:58:41;0.95;;;0.30;;
71368;SDS011;59175;53.214;5.728;2023-01-16T15:01:12;0.43;;;0.13;;
71368;SDS011;59175;53.214;5.728;2023-01-16T15:03:58;0.20;;;0.00;;
71368;SDS011;59175;53.214;5.728;2023-01-16T15:06:24;0.57;;;0.17;;
71368;SDS011;59175;53.214;5.728;2023-01-16T15:08:51;0.88;;;0.35;;
71368;SDS011;59175;53.214;5.728;2023-01-16T15:11:25;0.80;;;0.22;;
71368;SDS011;59175;53.214;5.728;2023-01-16T15:14:12;5.25;;;0.57;;
71368;SDS011;59175;53.214;5.728;2023-01-16T15:16:58;2.38;;;0.45;;
71368;SDS011;59175;53.214;5.728;2023-01-16T15:22:43;0.55;;;0.17;;
71368;SDS011;59175;53.214;5.728;2023-01-16T15:28:04;2.35;;;0.63;;
71368;SDS011;59175;53.214;5.728;2023-01-16T15:30:32;3.90;;;1.33;;
71368;SDS011;59175;53.214;5.728;2023-01-16T15:32:59;2.50;;;0.97;;
71368;SDS011;59175;53.214;5.728;2023-01-16T15:35:44;2.40;;;0.47;;
71368;SDS011;59175;53.214;5.728;2023-01-16T15:38:18;1.00;;;0.20;;
71368;SDS011;59175;53.214;5.728;2023-01-16T15:40:48;1.43;;;0.37;;
71368;SDS011;59175;53.214;5.728;2023-01-16T15:43:13;1.35;;;0.13;;
71368;SDS011;59175;53.214;5.728;2023-01-16T15:48:56;0.52;;;0.10;;
71368;SDS011;59175;53.214;5.728;2023-01-16T15:51:25;0.77;;;0.10;;
71368;SDS011;59175;53.214;5.728;2023-01-16T15:53:51;1.70;;;0.30;;
71368;SDS011;59175;53.214;5.728;2023-01-16T15:58:44;1.00;;;0.20;;
71368;SDS011;59175;53.214;5.728;2023-01-16T16:01:12;1.52;;;0.20;;
71368;SDS011;59175;53.214;5.728;2023-01-16T16:03:41;14.23;;;0.20;;
71368;SDS011;59175;53.214;5.728;2023-01-16T16:06:08;1.00;;;0.10;;
71368;SDS011;59175;53.214;5.728;2023-01-16T16:08:35;1.20;;;0.10;;
71368;SDS011;59175;53.214;5.728;2023-01-16T16:11:03;1.57;;;0.20;;
71368;SDS011;59175;53.214;5.728;2023-01-16T16:13:47;0.50;;;0.10;;
71368;SDS011;59175;53.214;5.728;2023-01-16T16:16:19;1.00;;;0.50;;
71368;SDS011;59175;53.214;5.728;2023-01-16T16:19:04;0.98;;;0.20;;
71368;SDS011;59175;53.214;5.728;2023-01-16T16:21:31;1.90;;;0.45;;
71368;SDS011;59175;53.214;5.728;2023-01-16T16:24:01;1.35;;;0.30;;
71368;SDS011;59175;53.214;5.728;2023-01-16T16:26:27;1.43;;;0.50;;
71368;SDS011;59175;53.214;5.728;2023-01-16T16:28:52;1.48;;;0.40;;
71368;SDS011;59175;53.214;5.728;2023-01-16T16:31:29;1.58;;;0.30;;
71368;SDS011;59175;53.214;5.728;2023-01-16T16:33:57;0.98;;;0.15;;
71368;SDS011;59175;53.214;5.728;2023-01-16T16:36:22;2.10;;;0.37;;
71368;SDS011;59175;53.214;5.728;2023-01-16T16:38:52;1.48;;;0.30;;
71368;SDS011;59175;53.214;5.728;2023-01-16T16:43:50;1.25;;;0.40;;
71368;SDS011;59175;53.214;5.728;2023-01-16T16:48:51;2.03;;;0.47;;
71368;SDS011;59175;53.214;5.728;2023-01-16T16:51:18;2.30;;;0.52;;
71368;SDS011;59175;53.214;5.728;2023-01-16T16:53:44;1.05;;;0.10;;
71368;SDS011;59175;53.214;5.728;2023-01-16T16:56:10;1.63;;;0.43;;
71368;SDS011;59175;53.214;5.728;2023-01-16T16:58:42;1.27;;;0.40;;
71368;SDS011;59175;53.214;5.728;2023-01-16T17:01:12;2.70;;;1.05;;
71368;SDS011;59175;53.214;5.728;2023-01-16T17:03:38;0.90;;;0.50;;
71368;SDS011;59175;53.214;5.728;2023-01-16T17:06:03;0.77;;;0.10;;
71368;SDS011;59175;53.214;5.728;2023-01-16T17:08:28;0.70;;;0.30;;
71368;SDS011;59175;53.214;5.728;2023-01-16T17:10:54;0.03;;;0.00;;
71368;SDS011;59175;53.214;5.728;2023-01-16T17:13:20;1.05;;;0.30;;
71368;SDS011;59175;53.214;5.728;2023-01-16T17:15:46;1.17;;;0.27;;
71368;SDS011;59175;53.214;5.728;2023-01-16T17:18:12;0.30;;;0.15;;
71368;SDS011;59175;53.214;5.728;2023-01-16T17:20:38;2.00;;;0.73;;
71368;SDS011;59175;53.214;5.728;2023-01-16T17:23:22;1.65;;;0.73;;
71368;SDS011;59175;53.214;5.728;2023-01-16T17:25:48;1.73;;;0.20;;
71368;SDS011;59175;53.214;5.728;2023-01-16T17:28:13;0.00;;;0.00;;
71368;SDS011;59175;53.214;5.728;2023-01-16T17:30:39;0.43;;;0.10;;
71368;SDS011;59175;53.214;5.728;2023-01-16T17:33:06;0.45;;;0.17;;
71368;SDS011;59175;53.214;5.728;2023-01-16T17:35:38;0.30;;;0.00;;
71368;SDS011;59175;53.214;5.728;2023-01-16T17:38:06;0.30;;;0.03;;
71368;SDS011;59175;53.214;5.728;2023-01-16T17:40:34;0.90;;;0.10;;
71368;SDS011;59175;53.214;5.728;2023-01-16T17:43:01;0.50;;;0.00;;